Time;durP1;ratioP1;P1;durP2;ratioP2;P2;SDS_P1;SDS_P2;PMS_P1;PMS_P2;Temp;Humidity;BMP_temperature;BMP_pressure;BME280_temperature;BME280_humidity;BME280_pressure;Samples;Min_cycle;Max_cycle;Signal;HPM_P1;HPM_P2
2022/12/04 00:00:20;;;;;;;68.90;17.80;;;;;;;-1.37;100.00;95432.22;1007252;29;20025;-67
2022/12/04 00:00:50;;;;;;;78.15;17.48;;;;;;;-1.34;100.00;95427.47;1014772;29;20046;-66
2022/12/04 00:01:22;;;;;;;83.07;19.63;;;;;;;-1.43;100.00;95426.06;1014679;29;20844;-65
2022/12/04 00:01:53;;;;;;;73.76;18.18;;;;;;;-1.41;100.00;95424.06;1018350;29;20016;-64
2022/12/04 00:02:24;;;;;;;73.03;18.80;;;;;;;-1.36;100.00;95432.03;1014641;29;20107;-69
2022/12/04 00:02:54;;;;;;;69.78;19.20;;;;;;;-1.40;100.00;95427.47;1018693;29;20027;-65
2022/12/04 00:03:25;;;;;;;63.58;17.50;;;;;;;-1.34;100.00;95435.19;1018740;29;20019;-66
2022/12/04 00:03:57;;;;;;;63.38;17.17;;;;;;;-1.34;100.00;95434.38;1010842;29;20325;-66
2022/12/04 00:04:27;;;;;;;69.68;18.80;;;;;;;-1.43;100.00;95426.06;1006822;29;20067;-67
2022/12/04 00:04:58;;;;;;;67.30;17.27;;;;;;;-1.38;100.00;95435.78;1003181;29;20078;-68
2022/12/04 00:05:28;;;;;;;74.20;18.15;;;;;;;-1.37;100.00;95435.59;1002863;29;20120;-65
2022/12/04 00:06:06;;;;;;;68.75;17.83;;;;;;;-1.38;100.00;95444.28;1003108;29;20043;-65
2022/12/04 00:06:37;;;;;;;66.92;17.72;;;;;;;-1.35;100.00;95443.09;1006952;29;20024;-66
2022/12/04 00:07:07;;;;;;;65.50;17.55;;;;;;;-1.32;100.00;95443.50;1018185;29;20451;-65
2022/12/04 00:07:38;;;;;;;89.00;17.67;;;;;;;-1.43;100.00;95437.16;1010706;29;20488;-69
2022/12/04 00:08:08;;;;;;;74.68;18.20;;;;;;;-1.36;100.00;95439.75;1007121;29;20115;-66
2022/12/04 00:08:39;;;;;;;77.82;18.67;;;;;;;-1.35;100.00;95441.31;1007329;29;20037;-66
2022/12/04 00:09:09;;;;;;;73.65;18.33;;;;;;;-1.35;100.00;95440.53;1014507;29;20020;-65
2022/12/04 00:09:40;;;;;;;69.18;19.52;;;;;;;-1.33;100.00;95439.34;1010979;29;20025;-69
2022/12/04 00:10:10;;;;;;;78.20;19.85;;;;;;;-1.32;100.00;95435.00;1011033;29;20013;-70
2022/12/04 00:10:42;;;;;;;86.90;18.88;;;;;;;-1.33;100.00;95436.00;1011009;29;20501;-66
2022/12/04 00:11:14;;;;;;;71.50;17.40;;;;;;;-1.32;100.00;95429.84;1015281;29;20080;-66
2022/12/04 00:11:44;;;;;;;81.00;19.34;;;;;;;-1.29;100.00;95432.81;1011075;29;20055;-67
2022/12/04 00:12:15;;;;;;;86.72;19.40;;;;;;;-1.35;100.00;95433.59;1010333;29;20114;-66
2022/12/04 00:12:45;;;;;;;83.07;18.50;;;;;;;-1.34;100.00;95437.78;1006648;29;20029;-65
2022/12/04 00:13:16;;;;;;;75.00;19.08;;;;;;;-1.31;100.00;95439.16;1007564;29;20078;-69
2022/12/04 00:13:46;;;;;;;76.25;18.73;;;;;;;-1.34;100.00;95426.66;1014571;29;20067;-67
2022/12/04 00:14:17;;;;;;;79.22;19.88;;;;;;;-1.36;100.00;95421.72;1011031;29;20056;-70
2022/12/04 00:14:48;;;;;;;95.80;21.77;;;;;;;-1.29;100.00;95443.13;1010717;29;20039;-66
2022/12/04 00:15:18;;;;;;;76.22;20.17;;;;;;;-1.27;100.00;95436.00;1006976;29;20081;-67
2022/12/04 00:15:49;;;;;;;88.00;19.88;;;;;;;-1.23;100.00;95437.19;1007326;29;20392;-67
2022/12/04 00:16:21;;;;;;;76.75;20.50;;;;;;;-1.25;100.00;95428.84;1006945;29;20658;-67
2022/12/04 00:16:51;;;;;;;74.60;18.40;;;;;;;-1.19;100.00;95428.09;1003827;29;20484;-67
2022/12/04 00:17:22;;;;;;;83.95;18.40;;;;;;;-1.33;100.00;95423.91;1011120;29;20029;-65
2022/12/04 00:17:52;;;;;;;76.30;18.65;;;;;;;-1.27;100.00;95423.13;1007479;29;20029;-67
2022/12/04 00:18:23;;;;;;;79.47;19.65;;;;;;;-1.25;100.00;95434.00;1011093;29;20095;-70
2022/12/04 00:18:53;;;;;;;111.65;21.35;;;;;;;-1.33;100.00;95426.50;1014798;29;20031;-66
2022/12/04 00:19:24;;;;;;;76.70;19.42;;;;;;;-1.24;100.00;95427.06;1010955;29;20424;-66
2022/12/04 00:19:54;;;;;;;80.68;19.85;;;;;;;-1.24;100.00;95434.78;1014601;29;20035;-67
2022/12/04 00:20:25;;;;;;;74.28;20.60;;;;;;;-1.21;100.00;95430.06;1010747;29;20020;-68
2022/12/04 00:20:55;;;;;;;76.07;20.23;;;;;;;-1.23;100.00;95429.47;1010950;29;20392;-66
2022/12/04 00:21:26;;;;;;;76.15;17.98;;;;;;;-1.17;100.00;95432.22;1016967;29;20039;-67
2022/12/04 00:21:56;;;;;;;79.03;20.83;;;;;;;-1.24;100.00;95424.50;1011801;29;20559;-68
2022/12/04 00:22:27;;;;;;;78.20;21.33;;;;;;;-1.23;100.00;95429.47;1013855;29;20032;-65
2022/12/04 00:22:57;;;;;;;64.25;17.67;;;;;;;-1.22;100.00;95418.19;1009805;29;20029;-65
2022/12/04 00:23:28;;;;;;;68.30;19.88;;;;;;;-1.22;100.00;95422.53;1018742;29;20088;-69
2022/12/04 00:23:58;;;;;;;77.00;18.77;;;;;;;-1.22;100.00;95420.75;1023047;29;20023;-67
2022/12/04 00:24:29;;;;;;;67.95;18.38;;;;;;;-1.21;100.00;95413.81;1018297;29;20028;-69
2022/12/04 00:24:59;;;;;;;100.38;18.00;;;;;;;-1.27;100.00;95415.41;1014754;29;20494;-65
2022/12/04 00:25:30;;;;;;;62.97;17.63;;;;;;;-1.25;100.00;95416.00;1011005;29;20572;-67
2022/12/04 00:26:01;;;;;;;57.95;16.85;;;;;;;-1.25;100.00;95413.41;1007023;29;20029;-66
2022/12/04 00:26:32;;;;;;;75.88;18.30;;;;;;;-1.22;100.00;95415.59;1010555;29;20025;-66
2022/12/04 00:27:02;;;;;;;59.50;16.92;;;;;;;-1.23;100.00;95421.75;1007525;29;20029;-66
2022/12/04 00:27:33;;;;;;;59.40;16.77;;;;;;;-1.25;100.00;95423.72;1009982;29;20475;-67
2022/12/04 00:28:03;;;;;;;59.50;18.10;;;;;;;-1.23;100.00;95421.75;1006842;29;20028;-67
2022/12/04 00:28:34;;;;;;;65.18;18.25;;;;;;;-1.26;100.00;95411.84;1006732;29;20013;-67
2022/12/04 00:29:04;;;;;;;78.22;19.10;;;;;;;-1.24;100.00;95424.50;1014796;29;20096;-69
2022/12/04 00:29:35;;;;;;;63.22;18.42;;;;;;;-1.22;100.00;95428.47;1014953;29;20059;-66
2022/12/04 00:30:06;;;;;;;65.48;18.90;;;;;;;-1.24;100.00;95430.47;1018801;29;20127;-67
2022/12/04 00:30:40;;;;;;;65.16;17.58;;;;;;;-1.24;100.00;95425.31;1014650;29;20016;-67
2022/12/04 00:31:15;;;;;;;70.80;17.30;;;;;;;-1.20;100.00;95436.81;1014595;29;20421;-66
2022/12/04 00:31:45;;;;;;;70.10;17.50;;;;;;;-1.26;100.00;95435.00;1011001;29;20035;-65
2022/12/04 00:32:16;;;;;;;59.58;17.30;;;;;;;-1.25;100.00;95446.88;1007790;29;20025;-67
2022/12/04 00:32:46;;;;;;;60.80;16.80;;;;;;;-1.24;100.00;95443.34;1011492;29;20124;-67
2022/12/04 00:33:17;;;;;;;60.90;18.45;;;;;;;-1.21;100.00;95445.53;1014833;29;20032;-67
2022/12/04 00:33:47;;;;;;;73.20;18.98;;;;;;;-1.21;100.00;95434.41;1015100;29;20513;-65
2022/12/04 00:34:18;;;;;;;56.97;17.13;;;;;;;-1.21;100.00;95444.69;1022609;29;20063;-66
2022/12/04 00:34:51;;;;;;;61.38;18.10;;;;;;;-1.17;100.00;95434.81;1022658;29;20481;-66
2022/12/04 00:35:21;;;;;;;66.64;17.40;;;;;;;-1.22;100.00;95433.63;1013888;29;20020;-68
2022/12/04 00:35:58;;;;;;;57.95;17.15;;;;;;;-1.22;100.00;95433.63;1010881;29;20448;-68
2022/12/04 00:36:29;;;;;;;69.76;17.36;;;;;;;-1.41;100.00;95418.94;1008377;29;20033;-66
2022/12/04 00:36:59;;;;;;;73.78;18.77;;;;;;;-1.30;100.00;95425.31;1014695;29;20016;-67
2022/12/04 00:37:32;;;;;;;80.47;18.05;;;;;;;-1.27;100.00;95441.16;1013930;29;20031;-67
2022/12/04 00:38:02;;;;;;;74.04;18.72;;;;;;;-1.28;100.00;95439.53;1010742;29;20527;-66
2022/12/04 00:38:33;;;;;;;64.90;17.58;;;;;;;-1.27;100.00;95440.38;1011076;29;20044;-70
2022/12/04 00:39:04;;;;;;;67.70;18.63;;;;;;;-1.30;100.00;95436.38;1013323;29;20132;-65
2022/12/04 00:39:34;;;;;;;58.58;16.38;;;;;;;-1.21;100.00;95435.22;1010800;29;20379;-66
2022/12/04 00:40:05;;;;;;;59.83;17.88;;;;;;;-1.23;100.00;95431.25;1010733;29;20072;-65
2022/12/04 00:40:36;;;;;;;76.76;17.14;;;;;;;-1.21;100.00;95440.38;1011075;29;20079;-67
2022/12/04 00:41:08;;;;;;;86.90;18.33;;;;;;;-1.24;100.00;95440.75;1014432;29;20111;-65
2022/12/04 00:41:38;;;;;;;59.18;17.08;;;;;;;-1.20;100.00;95441.16;1010940;29;20025;-65
2022/12/04 00:42:09;;;;;;;70.90;17.33;;;;;;;-1.21;100.00;95434.41;1010596;29;20395;-65
2022/12/04 00:42:39;;;;;;;78.28;17.95;;;;;;;-1.28;100.00;95433.59;1008443;29;20100;-67
2022/12/04 00:43:10;;;;;;;73.93;17.27;;;;;;;-1.28;100.00;95439.53;1014599;29;20027;-69
2022/12/04 00:43:40;;;;;;;72.68;17.63;;;;;;;-1.24;100.00;95440.75;1018473;29;20066;-67
2022/12/04 00:44:11;;;;;;;69.28;16.58;;;;;;;-1.23;100.00;95438.97;1018457;29;20026;-66
2022/12/04 00:44:41;;;;;;;50.17;17.00;;;;;;;-1.22;100.00;95445.69;1014893;29;20029;-70
2022/12/04 00:45:12;;;;;;;68.85;18.73;;;;;;;-1.26;100.00;95437.59;1006617;29;20112;-67
2022/12/04 00:45:42;;;;;;;54.60;16.85;;;;;;;-1.21;100.00;95439.56;1003031;29;20021;-66
2022/12/04 00:46:13;;;;;;;62.35;17.50;;;;;;;-1.23;100.00;95450.06;1006923;29;20017;-66
2022/12/04 00:46:44;;;;;;;60.60;17.17;;;;;;;-1.23;100.00;95446.69;1010468;29;20019;-67
2022/12/04 00:47:14;;;;;;;68.78;17.35;;;;;;;-1.24;100.00;95452.81;1006600;29;20025;-66
2022/12/04 00:47:45;;;;;;;61.65;17.27;;;;;;;-1.23;100.00;95447.50;1004919;29;20108;-66
2022/12/04 00:48:15;;;;;;;72.25;18.25;;;;;;;-1.24;100.00;95451.06;1006912;29;20080;-70
2022/12/04 00:48:46;;;;;;;63.85;18.25;;;;;;;-1.22;100.00;95454.22;1006976;29;20039;-68
2022/12/04 00:49:16;;;;;;;65.30;17.38;;;;;;;-1.21;100.00;95448.09;1006889;29;20029;-66
2022/12/04 00:49:47;;;;;;;55.78;16.90;;;;;;;-1.24;100.00;95445.09;1014895;29;20055;-68
2022/12/04 00:50:17;;;;;;;71.22;18.33;;;;;;;-1.19;100.00;95447.88;1018522;29;20103;-67
2022/12/04 00:50:48;;;;;;;65.93;17.67;;;;;;;-1.22;100.00;95438.75;1017732;29;20028;-66
2022/12/04 00:51:20;;;;;;;69.03;16.58;;;;;;;-1.20;100.00;95436.00;1014269;29;20023;-67
2022/12/04 00:51:51;;;;;;;56.22;16.14;;;;;;;-1.15;100.00;95438.00;1014302;29;20529;-65
2022/12/04 00:52:21;;;;;;;68.25;18.52;;;;;;;-1.22;100.00;95430.25;1010394;29;20061;-69
2022/12/04 00:52:52;;;;;;;63.88;18.60;;;;;;;-1.16;100.00;95438.97;1010661;29;20028;-66
2022/12/04 00:53:22;;;;;;;71.47;17.20;;;;;;;-1.19;100.00;95429.88;1015920;29;20034;-67
2022/12/04 00:53:53;;;;;;;68.65;17.80;;;;;;;-1.21;100.00;95432.66;1010717;29;20021;-68
2022/12/04 00:54:23;;;;;;;63.20;17.20;;;;;;;-1.20;100.00;95436.00;1010697;29;20056;-68
2022/12/04 00:54:53;;;;;;;67.63;18.30;;;;;;;-1.19;100.00;95433.22;1010696;29;20016;-66
2022/12/04 00:55:24;;;;;;;84.32;18.30;;;;;;;-1.19;100.00;95435.00;1014551;29;20075;-66
2022/12/04 00:55:54;;;;;;;67.22;17.50;;;;;;;-1.26;100.00;95437.59;1018382;29;20019;-65
2022/12/04 00:56:26;;;;;;;53.60;17.95;;;;;;;-1.21;100.00;95444.69;1020699;29;20020;-66
2022/12/04 00:56:56;;;;;;;63.72;16.22;;;;;;;-1.22;100.00;95446.50;1018919;29;20102;-65
2022/12/04 00:57:27;;;;;;;55.92;16.58;;;;;;;-1.23;100.00;95439.75;1018453;29;20542;-66
2022/12/04 00:57:57;;;;;;;63.70;17.10;;;;;;;-1.23;100.00;95441.56;1014640;29;20028;-66
2022/12/04 00:58:27;;;;;;;65.07;17.17;;;;;;;-1.20;100.00;95444.53;1013863;29;20025;-68
2022/12/04 00:58:58;;;;;;;63.97;16.92;;;;;;;-1.17;100.00;95450.25;1014991;29;20079;-68
2022/12/04 00:59:29;;;;;;;71.35;16.75;;;;;;;-1.25;100.00;95449.44;1007358;29;20024;-66
2022/12/04 00:59:59;;;;;;;62.15;17.00;;;;;;;-1.29;100.00;95421.75;1011166;29;20024;-66
2022/12/04 01:00:30;;;;;;;58.78;17.27;;;;;;;-1.24;100.00;95440.75;1011130;29;20029;-69
2022/12/04 01:01:06;;;;;;;60.53;17.13;;;;;;;-1.25;100.00;95436.59;1011001;29;20094;-66
2022/12/04 01:01:36;;;;;;;73.22;15.50;;;;;;;-1.23;100.00;95441.56;1010760;29;20099;-69
2022/12/04 01:02:06;;;;;;;59.47;15.73;;;;;;;-1.26;100.00;95447.88;1011706;29;20021;-66
2022/12/04 01:02:37;;;;;;;51.25;15.85;;;;;;;-1.22;100.00;95448.28;1011693;29;20025;-66
2022/12/04 01:03:08;;;;;;;48.70;17.48;;;;;;;-1.21;100.00;95442.94;1018961;29;20012;-65
2022/12/04 01:03:38;;;;;;;64.60;16.15;;;;;;;-1.21;100.00;95445.53;1011159;29;20017;-66
2022/12/04 01:04:09;;;;;;;65.90;17.65;;;;;;;-1.23;100.00;95444.91;1006996;29;20085;-66
2022/12/04 01:04:39;;;;;;;59.85;17.20;;;;;;;-1.25;100.00;95444.31;999182;29;20030;-66
2022/12/04 01:05:10;;;;;;;71.78;16.83;;;;;;;-1.30;100.00;95433.81;1003448;29;20124;-69
2022/12/04 01:05:44;;;;;;;61.00;17.84;;;;;;;-1.26;100.00;95445.31;1007104;29;20014;-65
2022/12/04 01:06:25;;;;;;;60.08;15.96;;;;;;;-1.26;100.00;95434.22;1008128;29;20103;-66
2022/12/04 01:06:56;;;;;;;55.70;16.68;;;;;;;-1.25;100.00;95439.16;1006999;29;20259;-68
2022/12/04 01:07:26;;;;;;;59.00;17.00;;;;;;;-1.26;100.00;95435.00;1008453;29;20048;-66
2022/12/04 01:07:57;;;;;;;53.15;17.23;;;;;;;-1.24;100.00;95429.66;1008478;29;20033;-65
2022/12/04 01:08:27;;;;;;;58.13;18.05;;;;;;;-1.29;100.00;95432.03;1011076;29;20025;-67
2022/12/04 01:08:58;;;;;;;65.93;16.90;;;;;;;-1.29;100.00;95439.75;1022972;29;20580;-70
2022/12/04 01:09:28;;;;;;;57.70;16.65;;;;;;;-1.24;100.00;95443.34;1018507;29;20023;-66
2022/12/04 01:09:59;;;;;;;67.65;17.85;;;;;;;-1.30;100.00;95427.88;1018439;29;20059;-65
2022/12/04 01:10:29;;;;;;;78.35;18.90;;;;;;;-1.24;100.00;95445.91;1018860;29;20031;-66
2022/12/04 01:11:04;;;;;;;69.85;17.35;;;;;;;-1.31;100.00;95439.97;1010807;29;20029;-70
2022/12/04 01:11:34;;;;;;;61.06;16.96;;;;;;;-1.26;100.00;95447.88;1010986;29;20024;-64
2022/12/04 01:12:05;;;;;;;59.60;15.50;;;;;;;-1.23;100.00;95446.69;1003026;29;20010;-67
2022/12/04 01:12:35;;;;;;;51.10;16.25;;;;;;;-1.21;100.00;95450.66;1002611;29;20125;-66
2022/12/04 01:13:06;;;;;;;70.05;17.20;;;;;;;-1.20;100.00;95436.81;1007080;29;20460;-66
2022/12/04 01:13:36;;;;;;;65.85;17.52;;;;;;;-1.19;100.00;95448.66;1007162;29;20437;-66
2022/12/04 01:14:07;;;;;;;74.68;17.63;;;;;;;-1.20;100.00;95438.59;1014694;29;20028;-67
2022/12/04 01:14:37;;;;;;;62.47;18.10;;;;;;;-1.17;100.00;95434.81;1010878;29;20487;-66
2022/12/04 01:15:08;;;;;;;61.67;18.25;;;;;;;-1.20;100.00;95444.53;1010841;29;20089;-68
2022/12/04 01:15:40;;;;;;;65.60;17.40;;;;;;;-1.21;100.00;95440.38;1014721;29;20514;-66
2022/12/04 01:16:35;;;;;;;68.94;17.90;;;;;;;-1.17;100.00;95437.38;1014927;29;20264;-69
2022/12/04 01:17:06;;;;;;;78.82;16.60;;;;;;;-1.13;100.00;95433.44;1014829;29;20032;-66
2022/12/04 01:17:36;;;;;;;67.97;17.52;;;;;;;-1.19;100.00;95430.66;1014674;29;20020;-67
2022/12/04 01:18:07;;;;;;;58.60;16.52;;;;;;;-1.09;100.00;95437.22;1017364;29;20023;-67
2022/12/04 01:18:37;;;;;;;73.63;17.90;;;;;;;-1.08;100.00;95433.63;1013178;29;20032;-67
2022/12/04 01:19:09;;;;;;;70.47;17.95;;;;;;;-1.16;100.00;95429.47;1006749;29;20056;-67
2022/12/04 01:19:39;;;;;;;66.14;17.52;;;;;;;-1.11;100.00;95432.25;1009123;29;20079;-67
2022/12/04 01:20:11;;;;;;;65.25;17.52;;;;;;;-1.07;100.00;95435.25;1015090;29;20016;-68
2022/12/04 01:20:49;;;;;;;79.58;19.04;;;;;;;-1.08;100.00;95438.78;1014828;29;20015;-66
2022/12/04 01:21:20;;;;;;;70.86;17.18;;;;;;;-1.06;100.00;95436.81;1014616;29;20118;-66
2022/12/04 01:21:50;;;;;;;60.65;17.58;;;;;;;-1.09;100.00;95434.63;1009984;29;20052;-67
2022/12/04 01:22:21;;;;;;;70.47;18.75;;;;;;;-1.04;100.00;95443.34;1007788;29;20344;-65
2022/12/04 01:22:51;;;;;;;71.25;17.63;;;;;;;-1.03;100.00;95441.56;1011455;29;20021;-65
2022/12/04 01:23:22;;;;;;;63.83;18.23;;;;;;;-1.03;100.00;95439.78;1011325;29;20032;-65
2022/12/04 01:23:52;;;;;;;71.82;18.27;;;;;;;-1.06;100.00;95437.59;1008271;29;20044;-67
2022/12/04 01:24:23;;;;;;;67.10;17.98;;;;;;;-1.02;100.00;95445.72;1014879;29;20031;-66
2022/12/04 01:24:56;;;;;;;73.53;18.45;;;;;;;-1.01;100.00;95444.72;1014366;29;20718;-66
2022/12/04 01:25:26;;;;;;;74.54;18.96;;;;;;;-1.04;100.00;95440.78;1014994;29;20020;-67
2022/12/04 01:25:57;;;;;;;90.32;23.42;;;;;;;-1.07;100.00;95424.94;1014760;29;20398;-67
2022/12/04 01:26:27;;;;;;;79.03;19.08;;;;;;;-1.12;100.00;95432.44;1010981;29;20023;-66
2022/12/04 01:26:58;;;;;;;78.53;18.27;;;;;;;-1.09;100.00;95439.78;1011734;29;20052;-66
2022/12/04 01:27:28;;;;;;;88.50;18.52;;;;;;;-1.09;100.00;95443.16;1012015;29;20036;-68
2022/12/04 01:27:59;;;;;;;72.10;19.90;;;;;;;-1.11;100.00;95445.09;1012341;29;20085;-66
2022/12/04 01:28:29;;;;;;;83.93;18.58;;;;;;;-1.16;100.00;95451.84;1020004;29;20023;-66
2022/12/04 01:29:00;;;;;;;84.68;19.27;;;;;;;-1.16;100.00;95451.84;1019681;29;20043;-66
2022/12/04 01:29:30;;;;;;;84.60;18.65;;;;;;;-1.16;100.00;95444.91;1015985;29;20028;-69
2022/12/04 01:30:01;;;;;;;97.45;18.90;;;;;;;-1.22;100.00;95443.91;1014175;29;20581;-66
2022/12/04 01:30:31;;;;;;;64.50;18.58;;;;;;;-1.20;100.00;95446.31;1012795;29;20036;-66
2022/12/04 01:31:04;;;;;;;87.38;19.10;;;;;;;-1.24;100.00;95437.38;1015498;29;20032;-63
2022/12/04 01:31:34;;;;;;;71.18;19.82;;;;;;;-1.21;100.00;95435.22;1011828;29;20023;-65
2022/12/04 01:32:05;;;;;;;77.03;20.67;;;;;;;-1.15;100.00;95438.00;1012255;29;20039;-69
2022/12/04 01:32:35;;;;;;;97.25;23.50;;;;;;;-1.14;100.00;95437.00;1015029;29;20032;-65
2022/12/04 01:33:06;;;;;;;67.10;19.45;;;;;;;-1.14;100.00;95432.66;1014592;29;20120;-66
2022/12/04 01:33:36;;;;;;;80.10;19.30;;;;;;;-1.18;100.00;95426.28;1023968;29;20011;-66
2022/12/04 01:34:07;;;;;;;78.78;20.23;;;;;;;-1.13;100.00;95436.03;1023570;29;20027;-68
2022/12/04 01:34:37;;;;;;;82.35;19.90;;;;;;;-1.12;100.00;95433.22;1019906;29;20053;-67
2022/12/04 01:35:08;;;;;;;77.32;19.48;;;;;;;-1.09;100.00;95432.06;1018665;29;20027;-66
2022/12/04 01:35:38;;;;;;;65.22;18.20;;;;;;;-1.07;100.00;95435.25;1019930;29;20094;-67
2022/12/04 01:36:14;;;;;;;93.13;19.27;;;;;;;-1.07;100.00;95432.66;1019810;29;20032;-68
2022/12/04 01:36:45;;;;;;;64.54;17.74;;;;;;;-1.09;100.00;95432.06;1019871;29;20036;-68
2022/12/04 01:37:15;;;;;;;81.63;18.20;;;;;;;-1.08;100.00;95431.06;1015771;29;20040;-66
2022/12/04 01:37:46;;;;;;;91.35;21.25;;;;;;;-1.08;100.00;95431.06;1016061;29;20382;-64
2022/12/04 01:38:16;;;;;;;81.25;21.23;;;;;;;-1.05;100.00;95436.59;1015963;29;20039;-65
2022/12/04 01:38:46;;;;;;;92.32;18.73;;;;;;;-1.15;100.00;95430.25;1018122;29;20043;-67
2022/12/04 01:39:17;;;;;;;88.55;19.30;;;;;;;-1.12;100.00;95437.59;1012072;29;20051;-67
2022/12/04 01:39:48;;;;;;;63.67;18.98;;;;;;;-1.09;100.00;95437.22;1004119;29;20033;-66
2022/12/04 01:40:18;;;;;;;65.93;18.35;;;;;;;-1.12;100.00;95432.44;1003556;29;20036;-66
2022/12/04 01:40:49;;;;;;;78.05;19.80;;;;;;;-1.09;100.00;95435.41;1004171;29;20158;-65
2022/12/04 01:41:25;;;;;;;81.03;22.15;;;;;;;-1.07;100.00;95445.53;1004291;29;20461;-68
2022/12/04 01:41:55;;;;;;;81.88;20.08;;;;;;;-1.08;100.00;95439.56;1012468;29;20041;-66
2022/12/04 01:42:26;;;;;;;71.30;17.30;;;;;;;-1.08;100.00;95443.94;1011163;29;20024;-65
2022/12/04 01:42:58;;;;;;;80.32;19.30;;;;;;;-1.12;100.00;95432.44;1012033;29;20089;-65
2022/12/04 01:43:29;;;;;;;69.88;19.00;;;;;;;-1.08;100.00;95433.63;1012239;29;20028;-66
2022/12/04 01:44:19;;;;;;;60.88;18.32;;;;;;;-1.09;100.00;95438.00;1015303;29;20016;-65
2022/12/04 01:45:27;;;;;;;77.36;18.08;;;;;;;-1.14;100.00;95434.41;1016070;29;20032;-66
2022/12/04 01:45:58;;;;;;;67.48;16.52;;;;;;;-1.13;100.00;95444.53;1018889;29;20058;-67
2022/12/04 01:46:29;;;;;;;58.36;17.92;;;;;;;-1.19;100.00;95432.44;1011803;29;20028;-66
2022/12/04 01:46:59;;;;;;;69.45;17.40;;;;;;;-1.13;100.00;95441.16;1015572;29;20091;-66
2022/12/04 01:47:30;;;;;;;94.32;19.88;;;;;;;-1.14;100.00;95440.38;1011808;29;20055;-66
2022/12/04 01:48:29;;;;;;;103.03;19.30;;;;;;;-1.13;100.00;95447.09;1008490;29;20078;-67
2022/12/04 01:49:00;;;;;;;91.18;19.54;;;;;;;-1.14;100.00;95439.56;1008802;29;20037;-66
2022/12/04 01:49:34;;;;;;;89.13;19.52;;;;;;;-1.12;100.00;95438.38;1004063;29;20026;-64
2022/12/04 01:50:05;;;;;;;73.70;18.52;;;;;;;-1.08;100.00;95441.34;1011829;29;20519;-68
2022/12/04 01:50:36;;;;;;;105.25;18.88;;;;;;;-1.09;100.00;95432.84;1013777;29;20020;-65
2022/12/04 01:51:17;;;;;;;82.63;18.50;;;;;;;-1.03;100.00;95439.00;1013593;29;20040;-67
2022/12/04 01:51:50;;;;;;;86.32;18.74;;;;;;;-1.08;100.00;95425.91;1015523;29;20027;-68
2022/12/04 01:52:21;;;;;;;86.80;18.54;;;;;;;-1.06;100.00;95423.94;1013004;29;20524;-66
2022/12/04 01:52:51;;;;;;;103.90;21.90;;;;;;;-1.05;100.00;95426.31;1015880;29;20020;-66
2022/12/04 01:53:22;;;;;;;105.93;21.30;;;;;;;-1.06;100.00;95422.16;1011859;29;20056;-65
2022/12/04 01:53:58;;;;;;;114.00;21.35;;;;;;;-1.01;100.00;95435.22;1008508;29;20021;-67
2022/12/04 01:54:31;;;;;;;88.52;21.44;;;;;;;-1.06;100.00;95426.53;1011899;29;20488;-68
2022/12/04 01:55:01;;;;;;;89.90;19.66;;;;;;;-1.03;100.00;95429.50;1015714;29;20204;-69
2022/12/04 01:55:32;;;;;;;102.75;22.13;;;;;;;-0.97;100.00;95423.56;1012956;29;20029;-66
2022/12/04 01:56:02;;;;;;;102.72;21.27;;;;;;;-0.97;100.00;95427.91;1011615;29;20033;-65
2022/12/04 01:56:37;;;;;;;92.43;20.45;;;;;;;-0.97;100.00;95422.75;1008077;29;20087;-66
2022/12/04 01:57:13;;;;;;;96.54;20.56;;;;;;;-1.01;100.00;95424.91;1008393;29;20076;-66
2022/12/04 01:57:45;;;;;;;109.46;21.98;;;;;;;-1.04;100.00;95430.47;1011485;29;20017;-67
2022/12/04 01:58:16;;;;;;;88.44;20.52;;;;;;;-1.03;100.00;95429.50;1011829;29;20843;-66
2022/12/04 01:58:47;;;;;;;89.78;21.42;;;;;;;-1.01;100.00;95431.84;1004144;29;20028;-65
2022/12/04 01:59:19;;;;;;;87.92;21.66;;;;;;;-1.05;100.00;95426.31;1004126;29;20037;-65
2022/12/04 02:00:09;;;;;;;107.18;23.36;;;;;;;-1.04;100.00;95432.25;1011849;29;20079;-67
2022/12/04 02:00:40;;;;;;;72.88;18.20;;;;;;;-1.09;100.00;95422.53;1010550;29;20434;-65
2022/12/04 02:01:10;;;;;;;81.10;19.48;;;;;;;-1.09;100.00;95430.28;1010439;29;20035;-69
2022/12/04 02:01:43;;;;;;;93.10;19.80;;;;;;;-1.08;100.00;95423.34;1011550;29;20506;-66
2022/12/04 02:02:15;;;;;;;89.06;19.52;;;;;;;-1.05;100.00;95425.53;1014945;29;20023;-68
2022/12/04 02:02:46;;;;;;;86.10;20.28;;;;;;;-1.04;100.00;95424.53;1011348;29;20025;-67
2022/12/04 02:03:16;;;;;;;92.35;21.77;;;;;;;-1.05;100.00;95428.09;1019552;29;20083;-68
2022/12/04 02:03:47;;;;;;;90.95;21.05;;;;;;;-1.08;100.00;95418.97;1015772;29;20416;-66
2022/12/04 02:04:18;;;;;;;68.65;20.08;;;;;;;-1.06;100.00;95413.66;1015594;29;20019;-67
2022/12/04 02:04:48;;;;;;;88.75;21.95;;;;;;;-1.04;100.00;95419.38;1007848;29;20021;-65
2022/12/04 02:05:19;;;;;;;87.88;21.25;;;;;;;-1.07;100.00;95412.06;1011738;29;20376;-69
2022/12/04 02:05:50;;;;;;;71.94;20.34;;;;;;;-1.05;100.00;95412.66;1007433;29;20115;-67
2022/12/04 02:06:20;;;;;;;78.32;23.13;;;;;;;-1.02;100.00;95412.25;1007570;29;20088;-68
2022/12/04 02:06:51;;;;;;;94.78;26.02;;;;;;;-1.05;100.00;95415.22;1003812;29;20033;-66
2022/12/04 02:07:21;;;;;;;90.55;26.10;;;;;;;-1.02;100.00;95407.09;1000415;29;20752;-68
2022/12/04 02:07:54;;;;;;;81.88;24.73;;;;;;;-1.04;100.00;95404.75;1008285;29;20072;-66
2022/12/04 02:08:25;;;;;;;72.94;21.04;;;;;;;-1.04;100.00;95407.31;1011667;29;20444;-66
2022/12/04 02:08:55;;;;;;;74.63;21.48;;;;;;;-1.06;100.00;95405.91;1012299;29;20112;-67
2022/12/04 02:09:26;;;;;;;70.13;21.80;;;;;;;-1.05;100.00;95408.28;1015827;29;20016;-68
2022/12/04 02:10:02;;;;;;;76.38;21.20;;;;;;;-0.99;100.00;95417.78;1011794;29;20025;-65
2022/12/04 02:11:02;;;;;;;78.86;18.40;;;;;;;-0.95;100.00;95415.63;1012016;29;20056;-64
2022/12/04 02:11:40;;;;;;;68.96;18.46;;;;;;;-1.03;100.00;95421.75;1013277;29;20044;-67
2022/12/04 02:12:31;;;;;;;77.46;17.50;;;;;;;-1.04;100.00;95420.19;1015774;29;20028;-64
2022/12/04 02:13:15;;;;;;;80.15;17.35;;;;;;;-1.05;100.00;95421.16;1015328;29;20024;-67
2022/12/04 02:14:04;;;;;;;90.12;18.48;;;;;;;-1.03;100.00;95415.81;1012937;29;20459;-66
2022/12/04 02:14:37;;;;;;;59.68;18.10;;;;;;;-1.00;100.00;95413.66;1019627;29;20028;-67
2022/12/04 02:15:35;;;;;;;80.38;19.72;;;;;;;-0.99;100.00;95417.00;1019559;29;20103;-69
2022/12/04 02:16:06;;;;;;;85.58;17.84;;;;;;;-1.03;100.00;95418.41;1019766;29;20043;-67
2022/12/04 02:16:50;;;;;;;91.45;19.70;;;;;;;-1.04;100.00;95409.06;1019547;29;20055;-66
2022/12/04 02:17:29;;;;;;;100.48;19.38;;;;;;;-1.03;100.00;95415.81;1019923;29;20043;-67
2022/12/04 02:18:28;;;;;;;127.50;19.04;;;;;;;-1.05;100.00;95408.28;1022504;29;20371;-65
2022/12/04 02:19:20;;;;;;;84.04;18.20;;;;;;;-1.01;100.00;95408.69;1011849;29;20025;-65
2022/12/04 02:20:04;;;;;;;86.80;18.26;;;;;;;-1.05;100.00;95402.34;1007766;29;20399;-66
2022/12/04 02:20:56;;;;;;;76.08;18.24;;;;;;;-1.04;100.00;95406.50;1010446;29;20013;-66
2022/12/04 02:21:34;;;;;;;94.82;18.68;;;;;;;-1.05;100.00;95407.50;1015697;29;20490;-67
2022/12/04 02:22:09;;;;;;;98.96;19.22;;;;;;;-1.07;100.00;95401.78;1011670;29;20051;-66
2022/12/04 02:23:04;;;;;;;76.70;18.46;;;;;;;-1.03;100.00;95405.53;1011214;29;20017;-68
2022/12/04 02:23:41;;;;;;;89.22;19.84;;;;;;;-1.04;100.00;95409.88;1015631;29;20028;-66
2022/12/04 02:24:19;;;;;;;91.00;19.30;;;;;;;-1.09;100.00;95407.09;1011993;29;20483;-65
2022/12/04 02:25:11;;;;;;;78.86;19.16;;;;;;;-1.09;100.00;95411.47;1015532;29;20056;-69
2022/12/04 02:26:00;;;;;;;80.90;19.08;;;;;;;-1.10;100.00;95410.69;1012010;29;20375;-66
2022/12/04 02:26:50;;;;;;;83.70;20.14;;;;;;;-1.09;100.00;95401.16;1017850;29;20034;-69
2022/12/04 02:27:23;;;;;;;74.78;18.08;;;;;;;-1.10;100.00;95397.81;1015653;29;20199;-67
2022/12/04 02:28:22;;;;;;;94.92;20.88;;;;;;;-1.10;100.00;95395.22;1015025;29;20071;-68
2022/12/04 02:29:34;;;;;;;96.26;20.74;;;;;;;-1.08;100.00;95398.38;1011186;29;20040;-66
2022/12/04 02:30:08;;;;;;;94.48;19.48;;;;;;;-1.09;100.00;95386.50;1022663;28;20199;-64